createdAt,value
2023-01-19T00:00:27.871Z,15.48
2023-01-19T00:01:31.085Z,15.68
2023-01-19T00:02:34.285Z,16.06
2023-01-19T00:03:37.428Z,15.56
2023-01-19T00:04:40.789Z,15.48
2023-01-19T00:05:44.571Z,15.68
2023-01-19T00:06:47.946Z,15.90
2023-01-19T00:07:51.101Z,15.57
2023-01-19T00:08:54.278Z,15.86
2023-01-19T00:09:57.653Z,16.02
2023-01-19T00:11:01.615Z,15.19
2023-01-19T00:12:05.756Z,15.52
2023-01-19T00:13:08.834Z,15.86
2023-01-19T00:14:11.985Z,15.22
2023-01-19T00:15:15.197Z,16.91
2023-01-19T00:16:21.086Z,16.29
2023-01-19T00:17:24.279Z,16.05
2023-01-19T00:18:27.364Z,16.86
2023-01-19T00:19:30.510Z,17.38
2023-01-19T00:20:34.972Z,16.73
2023-01-19T00:21:38.185Z,16.51
2023-01-19T00:22:41.505Z,16.84
2023-01-19T00:23:46.901Z,15.51
2023-01-19T00:24:50.185Z,15.48
2023-01-19T00:25:56.288Z,16.57
2023-01-19T00:26:59.644Z,16.79
2023-01-19T00:28:02.839Z,16.66
2023-01-19T00:29:07.410Z,15.82
2023-01-19T00:30:11.575Z,16.59
2023-01-19T00:31:14.760Z,16.12
2023-01-19T00:32:19.280Z,16.74
2023-01-19T00:33:22.455Z,15.56
2023-01-19T00:34:25.853Z,16.89
2023-01-19T00:35:29.325Z,15.09
2023-01-19T00:36:32.767Z,15.98
2023-01-19T00:37:35.836Z,15.85
2023-01-19T00:38:39.083Z,16.32
2023-01-19T00:39:42.615Z,16.42
2023-01-19T00:40:45.789Z,15.96
2023-01-19T00:42:10.388Z,16.12
2023-01-19T00:43:13.579Z,16.79
2023-01-19T00:44:16.643Z,17.96
2023-01-19T00:45:22.397Z,16.97
2023-01-19T00:46:26.609Z,16.31
2023-01-19T00:47:29.771Z,16.24
2023-01-19T00:48:32.938Z,15.24
2023-01-19T00:49:36.203Z,16.02
2023-01-19T00:50:39.347Z,16.01
2023-01-19T00:51:42.503Z,16.82
2023-01-19T00:52:47.565Z,16.31
2023-01-19T00:53:50.733Z,15.94
2023-01-19T00:54:53.898Z,16.77
2023-01-19T00:55:57.059Z,16.44
2023-01-19T00:57:00.310Z,16.08
2023-01-19T00:58:03.474Z,16.44
2023-01-19T00:59:06.642Z,16.69
2023-01-19T01:00:13.825Z,15.92
2023-01-19T01:01:17.074Z,15.73
2023-01-19T01:02:20.480Z,15.34
2023-01-19T01:03:25.552Z,15.36
2023-01-19T01:04:29.425Z,15.08
2023-01-19T01:05:32.566Z,15.31
2023-01-19T01:06:35.731Z,14.76
2023-01-19T01:07:44.148Z,15.68
2023-01-19T01:08:47.522Z,14.63
2023-01-19T01:09:51.162Z,15.23
2023-01-19T01:10:54.957Z,15.35
2023-01-19T01:11:58.092Z,14.73
2023-01-19T01:13:20.738Z,16.06
2023-01-19T01:14:09.229Z,15.87
2023-01-19T01:15:13.429Z,15.16
2023-01-19T01:16:16.960Z,15.48
2023-01-19T01:17:21.891Z,14.95
2023-01-19T01:18:25.741Z,16.62
2023-01-19T01:19:28.912Z,17.30
2023-01-19T01:20:33.998Z,17.89
2023-01-19T01:21:38.717Z,16.88
2023-01-19T01:22:46.939Z,16.14
2023-01-19T01:23:50.208Z,17.17
2023-01-19T01:24:53.399Z,17.82
2023-01-19T01:25:56.573Z,18.58
2023-01-19T01:26:59.944Z,20.70
2023-01-19T01:28:06.520Z,18.71
2023-01-19T01:29:09.710Z,20.46
2023-01-19T01:30:14.324Z,20.27
2023-01-19T01:31:17.561Z,19.63
2023-01-19T01:32:20.821Z,20.54
2023-01-19T01:33:41.395Z,17.24
2023-01-19T01:34:29.017Z,17.60
2023-01-19T01:35:33.370Z,15.81
2023-01-19T01:36:36.548Z,15.24
2023-01-19T01:37:39.942Z,14.90
2023-01-19T01:38:43.128Z,13.91
2023-01-19T01:39:46.281Z,15.08
2023-01-19T01:40:49.547Z,15.11
2023-01-19T01:41:52.727Z,13.85
2023-01-19T01:42:58.137Z,14.62
2023-01-19T01:44:03.158Z,14.90
2023-01-19T01:45:21.955Z,13.92
2023-01-19T01:46:26.685Z,14.32
2023-01-19T01:47:45.319Z,14.14
2023-01-19T01:48:54.811Z,14.38
2023-01-19T01:50:01.599Z,13.51
2023-01-19T01:51:26.310Z,12.97
2023-01-19T01:52:31.867Z,13.62
2023-01-19T01:53:37.984Z,12.58
2023-01-19T01:54:42.133Z,14.37
2023-01-19T01:55:48.802Z,13.59
2023-01-19T01:56:54.718Z,13.21
2023-01-19T01:58:01.447Z,13.35
2023-01-19T01:59:08.216Z,13.64
2023-01-19T02:00:13.518Z,13.01
2023-01-19T02:01:35.188Z,14.39
2023-01-19T02:02:50.813Z,13.28
2023-01-19T02:03:55.072Z,14.22
2023-01-19T02:05:04.619Z,14.32
2023-01-19T02:06:09.896Z,14.06
2023-01-19T02:07:34.656Z,13.32
2023-01-19T02:09:05.428Z,13.87
2023-01-19T02:10:27.784Z,13.62
2023-01-19T02:11:50.860Z,14.22
2023-01-19T02:13:13.513Z,13.23
2023-01-19T02:14:18.483Z,14.19
2023-01-19T02:15:21.769Z,14.86
2023-01-19T02:16:25.082Z,14.14
2023-01-19T02:17:28.360Z,13.35
2023-01-19T02:18:32.443Z,14.34
2023-01-19T02:19:43.355Z,14.06
2023-01-19T02:21:12.747Z,14.11
2023-01-19T02:22:25.261Z,13.48
2023-01-19T02:23:41.025Z,13.38
2023-01-19T02:24:44.614Z,12.52
2023-01-19T02:25:48.815Z,12.71
2023-01-19T02:26:52.620Z,12.98
2023-01-19T02:27:56.459Z,13.02
2023-01-19T02:29:03.172Z,12.96
2023-01-19T02:30:09.497Z,13.19
2023-01-19T02:31:12.768Z,12.87
2023-01-19T02:32:15.923Z,12.65
2023-01-19T02:33:19.126Z,12.91
2023-01-19T02:34:22.477Z,12.88
2023-01-19T02:35:26.347Z,13.45
2023-01-19T02:36:33.051Z,12.57
2023-01-19T02:37:39.633Z,12.19
2023-01-19T02:38:45.425Z,11.81
2023-01-19T02:39:54.800Z,13.05
2023-01-19T02:40:59.871Z,12.77
2023-01-19T02:42:12.284Z,12.25
2023-01-19T02:43:17.700Z,12.16
2023-01-19T02:44:22.583Z,11.90
2023-01-19T02:45:26.940Z,13.52
2023-01-19T02:46:30.582Z,12.47
2023-01-19T02:47:42.414Z,13.21
2023-01-19T02:48:45.594Z,13.47
2023-01-19T02:49:57.044Z,13.31
2023-01-19T02:51:06.555Z,12.62
2023-01-19T02:52:16.086Z,12.88
2023-01-19T02:53:28.888Z,13.04
2023-01-19T02:55:03.342Z,12.18
2023-01-19T02:56:24.272Z,12.38
2023-01-19T02:57:33.931Z,12.88
2023-01-19T02:58:43.520Z,12.83
2023-01-19T03:00:10.075Z,12.89
2023-01-19T03:01:25.739Z,12.19
2023-01-19T03:02:38.539Z,12.87
2023-01-19T03:03:54.180Z,13.34
2023-01-19T03:05:05.020Z,13.03
2023-01-19T03:06:15.637Z,12.72
2023-01-19T03:07:39.889Z,12.45
2023-01-19T03:08:49.331Z,12.91
2023-01-19T03:10:01.970Z,12.06
2023-01-19T03:11:08.017Z,13.57
2023-01-19T03:12:31.150Z,12.74
2023-01-19T03:13:52.986Z,13.01
2023-01-19T03:14:59.906Z,12.38
2023-01-19T03:16:22.600Z,13.14
2023-01-19T03:17:28.929Z,12.48
2023-01-19T03:18:35.203Z,12.58
2023-01-19T03:19:42.162Z,12.15
2023-01-19T03:20:46.356Z,13.01
2023-01-19T03:21:53.097Z,12.19
2023-01-19T03:23:00.259Z,13.52
2023-01-19T03:24:07.294Z,12.98
2023-01-19T03:25:14.259Z,13.77
2023-01-19T03:26:20.823Z,13.90
2023-01-19T03:27:26.787Z,13.53
2023-01-19T03:28:30.365Z,14.24
2023-01-19T03:29:36.723Z,13.21
2023-01-19T03:30:45.257Z,12.95
2023-01-19T03:31:50.716Z,12.77
2023-01-19T03:33:04.282Z,12.97
2023-01-19T03:34:11.015Z,12.29
2023-01-19T03:35:16.496Z,12.81
2023-01-19T03:36:29.310Z,13.61
2023-01-19T03:37:35.751Z,13.74
2023-01-19T03:38:42.330Z,13.09
2023-01-19T03:39:45.514Z,12.09
2023-01-19T03:40:49.794Z,12.29
2023-01-19T03:41:56.365Z,12.36
2023-01-19T03:43:01.266Z,12.19
2023-01-19T03:44:06.040Z,12.52
2023-01-19T03:45:11.203Z,12.68
2023-01-19T03:46:16.910Z,12.72
2023-01-19T03:47:20.140Z,12.00
2023-01-19T03:48:25.009Z,12.46
2023-01-19T03:49:31.742Z,12.30
2023-01-19T03:50:35.119Z,13.24
2023-01-19T03:51:39.278Z,12.38
2023-01-19T03:52:42.452Z,12.95
2023-01-19T03:53:46.519Z,13.26
2023-01-19T03:54:49.797Z,12.35
2023-01-19T03:55:53.637Z,12.68
2023-01-19T03:56:57.479Z,12.82
2023-01-19T03:58:00.634Z,12.79
2023-01-19T03:59:05.402Z,12.56
2023-01-19T04:00:09.618Z,12.27
2023-01-19T04:01:14.837Z,12.66
2023-01-19T04:02:18.136Z,12.30
2023-01-19T04:03:21.270Z,13.07
2023-01-19T04:04:24.957Z,12.98
2023-01-19T04:05:28.957Z,13.28
2023-01-19T04:06:32.233Z,12.76
2023-01-19T04:07:35.430Z,12.53
2023-01-19T04:08:38.635Z,13.32
2023-01-19T04:09:41.794Z,12.46
2023-01-19T04:10:44.963Z,13.38
2023-01-19T04:11:48.113Z,12.74
2023-01-19T04:13:00.129Z,11.64
2023-01-19T04:14:03.991Z,13.19
2023-01-19T04:15:07.760Z,11.31
2023-01-19T04:16:11.963Z,12.42
2023-01-19T04:17:15.514Z,13.06
2023-01-19T04:18:21.719Z,14.12
2023-01-19T04:19:24.869Z,13.18
2023-01-19T04:20:28.612Z,12.92
2023-01-19T04:21:31.794Z,12.85
2023-01-19T04:22:35.131Z,13.34
2023-01-19T04:23:38.293Z,13.38
2023-01-19T04:24:41.532Z,13.59
2023-01-19T04:25:44.724Z,13.33
2023-01-19T04:26:49.948Z,13.83
2023-01-19T04:27:53.349Z,13.29
2023-01-19T04:28:57.501Z,13.54
2023-01-19T04:30:00.728Z,12.13
2023-01-19T04:31:05.287Z,14.63
2023-01-19T04:32:08.547Z,12.87
2023-01-19T04:33:11.714Z,13.06
2023-01-19T04:34:15.005Z,12.82
2023-01-19T04:35:18.184Z,12.26
2023-01-19T04:36:21.478Z,12.96
2023-01-19T04:37:24.647Z,13.19
2023-01-19T04:38:27.914Z,13.29
2023-01-19T04:39:31.042Z,13.29
2023-01-19T04:40:34.322Z,13.08
2023-01-19T04:41:37.495Z,12.78
2023-01-19T04:42:44.980Z,13.14
2023-01-19T04:43:48.083Z,13.21
2023-01-19T04:44:52.060Z,12.55
2023-01-19T04:45:55.259Z,11.97
2023-01-19T04:46:58.356Z,13.12
2023-01-19T04:48:03.350Z,11.54
2023-01-19T04:49:06.730Z,12.80
2023-01-19T04:50:11.212Z,12.35
2023-01-19T04:51:14.369Z,12.97
2023-01-19T04:52:17.582Z,12.21
2023-01-19T04:53:20.991Z,13.01
2023-01-19T04:54:24.186Z,13.39
2023-01-19T04:55:27.859Z,13.09
2023-01-19T04:56:31.115Z,13.18
2023-01-19T04:57:34.406Z,12.50
2023-01-19T04:58:40.636Z,12.82
2023-01-19T04:59:43.863Z,12.91
2023-01-19T05:00:47.322Z,12.93
2023-01-19T05:01:50.500Z,13.31
2023-01-19T05:02:53.809Z,12.97
2023-01-19T05:03:59.367Z,13.18
2023-01-19T05:05:03.024Z,12.19
2023-01-19T05:06:07.296Z,13.19
2023-01-19T05:07:10.477Z,11.68
2023-01-19T05:08:13.652Z,12.46
2023-01-19T05:09:16.828Z,12.82
2023-01-19T05:10:20.158Z,13.36
2023-01-19T05:11:23.459Z,12.88
2023-01-19T05:12:26.950Z,13.33
2023-01-19T05:13:30.109Z,13.33
2023-01-19T05:14:33.283Z,12.96
2023-01-19T05:15:36.449Z,12.14
2023-01-19T05:16:39.715Z,14.17
2023-01-19T05:17:42.991Z,12.89
2023-01-19T05:18:46.159Z,12.79
2023-01-19T05:19:49.322Z,13.12
2023-01-19T05:20:52.638Z,13.14
2023-01-19T05:21:55.820Z,13.36
2023-01-19T05:22:59.454Z,13.01
2023-01-19T05:24:03.484Z,13.05
2023-01-19T05:25:09.400Z,12.19
2023-01-19T05:26:12.639Z,11.97
2023-01-19T05:27:15.837Z,13.08
2023-01-19T05:28:20.591Z,13.13
2023-01-19T05:29:23.970Z,13.24
2023-01-19T05:30:27.318Z,12.92
2023-01-19T05:31:30.601Z,13.55
2023-01-19T05:32:33.814Z,13.49
2023-01-19T05:33:36.955Z,13.59
2023-01-19T05:34:40.320Z,13.37
2023-01-19T05:35:43.681Z,13.96
2023-01-19T05:36:46.747Z,13.27
2023-01-19T05:37:50.206Z,14.48
2023-01-19T05:38:56.405Z,14.08
2023-01-19T05:39:59.606Z,14.25
2023-01-19T05:41:03.025Z,15.16
2023-01-19T05:42:06.195Z,14.07
2023-01-19T05:43:09.384Z,13.62
2023-01-19T05:44:13.068Z,14.29
2023-01-19T05:45:16.230Z,14.35
2023-01-19T05:46:19.406Z,13.99
2023-01-19T05:47:22.520Z,13.47
2023-01-19T05:48:27.546Z,14.57
2023-01-19T05:49:30.718Z,14.33
2023-01-19T05:50:34.765Z,14.71
2023-01-19T05:51:38.471Z,14.85
2023-01-19T05:52:41.668Z,14.81
2023-01-19T05:53:44.829Z,15.00
2023-01-19T05:54:48.294Z,14.06
2023-01-19T05:55:51.498Z,15.48
2023-01-19T05:56:54.674Z,16.49
2023-01-19T05:57:57.873Z,15.48
2023-01-19T05:59:01.438Z,15.41
2023-01-19T06:00:06.176Z,14.47
2023-01-19T06:01:11.163Z,15.68
2023-01-19T06:02:17.146Z,15.69
2023-01-19T06:03:20.359Z,14.65
2023-01-19T06:04:23.566Z,14.83
2023-01-19T06:05:26.841Z,15.12
2023-01-19T06:06:30.077Z,14.76
2023-01-19T06:07:33.176Z,15.69
2023-01-19T06:08:36.214Z,16.73
2023-01-19T06:09:39.421Z,16.14
2023-01-19T06:10:43.220Z,17.19
2023-01-19T06:11:46.704Z,17.49
2023-01-19T06:12:51.255Z,17.32
2023-01-19T06:13:54.419Z,19.68
2023-01-19T06:14:57.587Z,18.87
2023-01-19T06:16:02.086Z,19.40
2023-01-19T06:17:06.175Z,20.85
2023-01-19T06:18:09.422Z,20.05
2023-01-19T06:19:13.213Z,21.04
2023-01-19T06:20:16.679Z,21.74
2023-01-19T06:21:19.838Z,19.27
2023-01-19T06:22:23.016Z,16.95
2023-01-19T06:23:28.548Z,18.04
2023-01-19T06:24:32.342Z,17.87
2023-01-19T06:25:35.532Z,17.69
2023-01-19T06:26:38.761Z,17.73
2023-01-19T06:27:45.545Z,17.68
2023-01-19T06:28:50.843Z,17.11
2023-01-19T06:29:54.019Z,17.97
2023-01-19T06:30:57.357Z,16.48
2023-01-19T06:32:00.672Z,18.02
2023-01-19T06:33:06.007Z,16.85
2023-01-19T06:34:09.966Z,16.09
2023-01-19T06:35:13.667Z,14.62
2023-01-19T06:36:16.865Z,15.26
2023-01-19T06:37:20.014Z,15.43
2023-01-19T06:38:23.233Z,13.97
2023-01-19T06:39:26.823Z,13.86
2023-01-19T06:40:30.213Z,14.09
2023-01-19T06:41:33.842Z,13.89
2023-01-19T06:42:37.176Z,14.21
2023-01-19T06:43:40.335Z,13.49
2023-01-19T06:44:45.285Z,14.11
2023-01-19T06:45:49.498Z,14.56
2023-01-19T06:46:53.087Z,15.44
2023-01-19T06:47:58.050Z,15.73
2023-01-19T06:49:01.199Z,14.84
2023-01-19T06:50:04.685Z,15.29
2023-01-19T06:51:07.946Z,14.07
2023-01-19T06:52:13.518Z,14.94
2023-01-19T06:53:17.160Z,13.58
2023-01-19T06:54:20.361Z,14.28
2023-01-19T06:55:25.409Z,13.74
2023-01-19T06:56:30.377Z,13.98
2023-01-19T06:57:33.524Z,14.01
2023-01-19T06:58:37.019Z,13.31
2023-01-19T06:59:40.508Z,15.15
2023-01-19T07:00:43.891Z,12.99
2023-01-19T07:01:47.197Z,14.68
2023-01-19T07:02:50.373Z,14.26
2023-01-19T07:03:53.943Z,13.98
2023-01-19T07:04:57.200Z,14.45
2023-01-19T07:06:02.082Z,14.61
2023-01-19T07:07:08.017Z,14.71
2023-01-19T07:08:11.276Z,14.81
2023-01-19T07:09:16.946Z,14.19
2023-01-19T07:10:20.465Z,14.33
2023-01-19T07:11:29.863Z,15.04
2023-01-19T07:12:30.212Z,14.48
2023-01-19T07:13:35.004Z,14.89
2023-01-19T07:14:38.332Z,15.06
2023-01-19T07:15:41.592Z,14.09
2023-01-19T07:16:44.933Z,14.01
2023-01-19T07:17:48.424Z,13.74
2023-01-19T07:18:52.060Z,13.89
2023-01-19T07:19:55.260Z,13.48
2023-01-19T07:20:59.062Z,12.62
2023-01-19T07:22:02.594Z,13.74
2023-01-19T07:23:05.867Z,14.23
2023-01-19T07:24:09.068Z,12.75
2023-01-19T07:25:13.780Z,13.94
2023-01-19T07:26:20.850Z,13.98
2023-01-19T10:48:44.297Z,11.28
2023-01-19T10:49:50.249Z,12.02
2023-01-19T10:52:34.062Z,11.08
2023-01-19T10:53:37.635Z,11.13
2023-01-19T10:54:42.868Z,10.97
2023-01-19T10:55:46.104Z,12.06
2023-01-19T10:56:58.157Z,10.81
2023-01-19T10:58:01.752Z,10.91
2023-01-19T10:59:06.359Z,11.82
2023-01-19T11:00:29.687Z,11.38
2023-01-19T11:01:35.318Z,11.35
2023-01-19T11:02:43.805Z,11.16
2023-01-19T11:03:47.554Z,11.46
2023-01-19T11:04:52.472Z,10.79
2023-01-19T11:06:18.068Z,11.66
2023-01-19T11:07:34.031Z,11.61
2023-01-19T11:08:37.025Z,11.53
2023-01-19T11:09:40.081Z,11.44
2023-01-19T11:10:49.164Z,11.66
2023-01-19T11:11:53.212Z,11.70
2023-01-19T11:13:06.996Z,11.41
2023-01-19T11:14:13.116Z,11.83
2023-01-19T11:16:34.919Z,12.32
2023-01-19T11:17:41.613Z,12.78
2023-01-19T11:18:46.531Z,12.17
2023-01-19T11:19:56.059Z,11.99
2023-01-19T11:21:05.853Z,11.74
2023-01-19T11:22:22.101Z,11.90
2023-01-19T11:23:30.860Z,12.07
2023-01-19T11:24:37.987Z,11.63
2023-01-19T11:25:44.738Z,11.67
2023-01-19T11:26:56.153Z,11.84
2023-01-19T11:28:00.186Z,13.03
2023-01-19T11:29:04.640Z,12.85
2023-01-19T11:30:11.859Z,12.67
2023-01-19T11:31:18.634Z,12.77
2023-01-19T11:32:23.165Z,12.29
2023-01-19T11:33:35.855Z,12.15
2023-01-19T11:34:41.891Z,12.62
2023-01-19T11:35:45.046Z,12.64
2023-01-19T11:38:22.890Z,13.81
2023-01-19T11:39:29.167Z,12.66
2023-01-19T11:40:34.348Z,12.82
2023-01-19T11:41:39.140Z,13.62
2023-01-19T11:42:43.984Z,13.21
2023-01-19T11:43:50.648Z,13.77
2023-01-19T11:45:06.459Z,12.41
2023-01-19T11:46:12.747Z,12.96
2023-01-19T11:47:22.426Z,13.31
2023-01-19T11:48:32.638Z,13.93
2023-01-19T11:50:12.728Z,12.91
2023-01-19T11:51:19.486Z,12.69
2023-01-19T11:52:34.511Z,13.88
2023-01-19T11:53:37.831Z,13.39
2023-01-19T11:54:54.112Z,13.43
2023-01-19T11:56:11.516Z,12.49
2023-01-19T11:57:16.611Z,13.12
2023-01-19T11:58:19.985Z,13.88
2023-01-19T11:59:24.537Z,13.22
2023-01-19T12:00:40.427Z,11.71
2023-01-19T12:01:47.216Z,13.39
2023-01-19T12:02:56.720Z,12.74
2023-01-19T12:04:18.525Z,13.34
2023-01-19T12:05:24.381Z,12.97
2023-01-19T12:06:36.588Z,13.74
2023-01-19T12:07:41.292Z,13.11
2023-01-19T12:08:59.820Z,13.52
2023-01-19T12:10:09.531Z,13.32
2023-01-19T12:11:16.171Z,12.92
2023-01-19T12:12:30.779Z,13.39
2023-01-19T12:13:36.009Z,13.52
2023-01-19T12:14:45.527Z,12.78
2023-01-19T12:15:52.223Z,13.73
2023-01-19T12:16:59.136Z,13.09
2023-01-19T12:18:05.189Z,13.69
2023-01-19T12:19:14.806Z,12.61
2023-01-19T12:20:30.638Z,12.51
2023-01-19T12:21:33.873Z,13.42
2023-01-19T12:22:40.723Z,13.00
2023-01-19T12:23:53.123Z,13.74
2023-01-19T12:25:16.398Z,13.67
2023-01-19T12:26:41.337Z,13.16
2023-01-19T12:27:46.309Z,13.18
2023-01-19T12:28:52.445Z,13.27
2023-01-19T12:29:55.842Z,14.44
2023-01-19T12:31:01.306Z,13.47
2023-01-19T12:32:17.188Z,13.31
2023-01-19T12:33:29.912Z,13.61
2023-01-19T12:34:44.453Z,12.92
2023-01-19T12:36:03.359Z,13.41
2023-01-19T12:37:09.053Z,13.46
2023-01-19T12:38:46.246Z,12.68
2023-01-19T12:39:49.612Z,12.14
2023-01-19T12:40:56.486Z,12.47
2023-01-19T12:42:15.250Z,13.30
2023-01-19T12:43:18.553Z,12.73
2023-01-19T12:44:25.291Z,12.58
2023-01-19T12:45:38.813Z,13.48
2023-01-19T12:46:48.996Z,12.17
2023-01-19T12:47:56.069Z,12.28
2023-01-19T12:49:08.632Z,12.36
2023-01-19T12:50:15.445Z,12.10
2023-01-19T12:51:26.751Z,12.55
2023-01-19T12:52:36.215Z,13.02
2023-01-19T12:53:44.743Z,12.45
2023-01-19T12:54:57.212Z,11.90
2023-01-19T12:56:05.394Z,11.89
2023-01-19T12:57:28.999Z,12.65
2023-01-19T12:58:33.978Z,12.04
2023-01-19T12:59:38.776Z,13.29
2023-01-19T13:00:44.321Z,12.63
2023-01-19T13:01:53.853Z,12.49
2023-01-19T13:05:42.324Z,12.53
2023-01-19T13:06:53.533Z,12.77
2023-01-19T13:08:06.673Z,12.93
2023-01-19T13:09:30.393Z,12.89
2023-01-19T13:10:53.911Z,14.65
2023-01-19T13:12:18.649Z,13.36
2023-01-19T13:13:31.092Z,13.43
2023-01-19T13:14:35.998Z,13.58
2023-01-19T13:15:39.295Z,13.77
2023-01-19T13:16:47.614Z,13.51
2023-01-19T13:17:52.212Z,14.03
2023-01-19T13:19:05.792Z,13.99
2023-01-19T13:20:24.887Z,13.83
2023-01-19T13:21:40.292Z,13.77
2023-01-19T13:22:51.734Z,14.86
2023-01-19T13:24:01.790Z,13.93
2023-01-19T13:25:13.783Z,14.24
2023-01-19T13:26:22.579Z,14.34
2023-01-19T13:27:27.541Z,14.82
2023-01-19T13:28:42.839Z,14.48
2023-01-19T13:29:46.115Z,14.17
2023-01-19T13:33:27.829Z,15.22
2023-01-19T13:34:40.432Z,15.76
2023-01-19T13:35:52.969Z,15.97
2023-01-19T13:37:01.404Z,16.46
2023-01-19T13:38:06.847Z,16.11
2023-01-19T13:40:36.451Z,17.38
2023-01-19T13:41:43.605Z,17.58
2023-01-19T13:42:47.770Z,16.18
2023-01-19T13:45:08.160Z,16.00
2023-01-19T13:46:13.697Z,16.84
2023-01-19T13:47:23.543Z,17.65
2023-01-19T13:48:27.638Z,16.41
2023-01-19T13:49:37.084Z,16.63
2023-01-19T13:50:40.428Z,16.95
2023-01-19T13:51:43.508Z,17.52
2023-01-19T13:52:51.335Z,17.24
2023-01-19T13:53:58.254Z,18.22
2023-01-19T13:55:04.336Z,19.16
2023-01-19T13:56:11.174Z,19.76
2023-01-19T13:57:34.368Z,20.29
2023-01-19T13:58:37.592Z,20.66
2023-01-19T13:59:40.726Z,20.46
2023-01-19T14:00:45.900Z,20.62
2023-01-19T14:01:50.655Z,21.08
2023-01-19T14:03:03.373Z,20.41
2023-01-19T14:04:06.485Z,21.62
2023-01-19T14:05:15.085Z,21.81
2023-01-19T14:06:23.580Z,21.81
2023-01-19T14:07:26.891Z,22.49
2023-01-19T14:08:31.875Z,22.16
2023-01-19T14:09:34.979Z,22.79
2023-01-19T14:10:46.555Z,22.10
2023-01-19T14:12:13.417Z,22.12
2023-01-19T14:13:19.995Z,22.19
2023-01-19T14:14:26.248Z,22.05
2023-01-19T14:15:31.590Z,23.08
2023-01-19T14:16:35.203Z,22.66
2023-01-19T14:19:01.822Z,23.72
2023-01-19T14:20:05.991Z,23.69
2023-01-19T14:21:14.565Z,22.19
2023-01-19T14:22:18.262Z,21.63
2023-01-19T14:23:41.645Z,21.67
2023-01-19T14:24:44.773Z,21.20
2023-01-19T14:25:47.986Z,21.19
2023-01-19T14:26:53.427Z,20.92
2023-01-19T14:28:28.132Z,20.19
2023-01-19T14:29:34.359Z,19.17
2023-01-19T14:30:37.723Z,19.76
2023-01-19T14:31:46.174Z,19.57
2023-01-19T14:32:49.444Z,20.19
2023-01-19T14:33:55.412Z,20.12
2023-01-19T14:35:05.201Z,20.01
2023-01-19T14:36:18.251Z,20.56
2023-01-19T14:37:31.431Z,22.10
2023-01-19T14:38:34.775Z,21.48
2023-01-19T14:39:37.974Z,21.84
2023-01-19T14:40:41.797Z,21.31
2023-01-19T14:41:54.147Z,22.04
2023-01-19T14:43:02.121Z,21.73
2023-01-19T14:44:11.071Z,22.09
2023-01-19T14:45:29.525Z,21.69
2023-01-19T14:46:32.767Z,21.89
2023-01-19T14:47:39.065Z,20.45
2023-01-19T14:48:48.228Z,20.73
2023-01-19T14:49:51.445Z,21.39
2023-01-19T14:51:03.631Z,20.81
2023-01-19T14:52:21.560Z,19.63
2023-01-19T14:53:27.043Z,19.64
2023-01-19T14:54:39.448Z,21.29
2023-01-19T14:55:49.119Z,20.36
2023-01-19T14:56:53.746Z,20.22
2023-01-19T14:57:57.048Z,20.39
2023-01-19T14:59:01.850Z,21.42
2023-01-19T15:00:17.381Z,20.81
2023-01-19T15:01:20.799Z,20.59
2023-01-19T15:02:25.852Z,22.03
2023-01-19T15:03:48.530Z,22.63
2023-01-19T15:04:38.462Z,21.14
2023-01-19T15:05:46.425Z,21.55
2023-01-19T15:06:49.765Z,21.89
2023-01-19T15:07:52.978Z,20.15
2023-01-19T15:08:58.091Z,21.24
2023-01-19T15:10:02.311Z,20.98
2023-01-19T15:11:28.409Z,21.87
2023-01-19T15:12:31.649Z,20.89
2023-01-19T15:13:34.858Z,20.53
2023-01-19T15:14:38.123Z,18.89
2023-01-19T15:15:41.743Z,19.81
2023-01-19T15:16:48.384Z,19.04
2023-01-19T15:17:51.977Z,19.42
2023-01-19T15:18:55.456Z,19.49
2023-01-19T15:19:58.677Z,18.21
2023-01-19T15:21:03.088Z,18.65
2023-01-19T15:22:12.850Z,18.26
2023-01-19T15:23:16.089Z,18.25
2023-01-19T15:24:19.219Z,18.72
2023-01-19T15:25:26.572Z,17.71
2023-01-19T15:26:30.100Z,19.38
2023-01-19T15:27:33.237Z,20.51
2023-01-19T15:28:36.519Z,19.76
2023-01-19T15:29:39.778Z,19.69
2023-01-19T15:30:43.718Z,19.75
2023-01-19T15:31:47.098Z,20.42
2023-01-19T15:32:51.015Z,18.98
2023-01-19T15:33:54.394Z,20.02
2023-01-19T15:34:57.553Z,20.81
2023-01-19T15:36:00.870Z,20.63
2023-01-19T15:37:04.393Z,21.72
2023-01-19T15:38:07.592Z,20.79
2023-01-19T15:39:11.137Z,21.27
2023-01-19T15:40:15.144Z,21.29
2023-01-19T15:41:31.473Z,22.26
2023-01-19T15:42:34.736Z,21.21
2023-01-19T15:43:37.912Z,21.99
2023-01-19T15:44:41.125Z,21.91
2023-01-19T15:45:56.256Z,22.26
2023-01-19T15:46:59.541Z,21.21
2023-01-19T15:48:06.334Z,21.09
2023-01-19T15:49:09.532Z,22.43
2023-01-19T15:50:13.230Z,21.03
2023-01-19T15:51:21.993Z,21.48
2023-01-19T15:52:25.503Z,22.21
2023-01-19T15:53:30.009Z,20.78
2023-01-19T15:54:33.208Z,21.41
2023-01-19T15:55:36.375Z,21.18
2023-01-19T15:56:40.747Z,21.14
2023-01-19T15:57:44.069Z,20.16
2023-01-19T15:58:47.790Z,21.02
2023-01-19T15:59:51.263Z,21.45
2023-01-19T16:00:56.412Z,21.20
2023-01-19T16:01:59.949Z,20.85
2023-01-19T16:03:03.631Z,19.52
2023-01-19T16:04:09.007Z,20.69
2023-01-19T16:05:12.740Z,18.47
2023-01-19T16:06:17.299Z,20.06
2023-01-19T16:07:20.583Z,19.54
2023-01-19T16:08:23.768Z,20.14
2023-01-19T16:09:27.234Z,20.00
2023-01-19T16:10:30.711Z,20.32
2023-01-19T16:11:34.811Z,19.92
2023-01-19T16:12:38.119Z,19.40
2023-01-19T16:13:46.103Z,20.92
2023-01-19T16:14:49.327Z,19.29
2023-01-19T16:15:52.524Z,19.82
2023-01-19T16:16:59.338Z,19.66
2023-01-19T16:18:03.760Z,19.02
2023-01-19T16:19:06.996Z,20.94
2023-01-19T16:20:14.469Z,19.21
2023-01-19T16:21:16.746Z,20.04
2023-01-19T16:22:20.149Z,20.18
2023-01-19T16:23:23.358Z,19.96
2023-01-19T16:24:26.558Z,19.51
2023-01-19T16:25:30.654Z,19.59
2023-01-19T16:26:37.001Z,19.69
2023-01-19T16:27:40.211Z,18.66
2023-01-19T16:28:43.464Z,18.44
2023-01-19T16:29:47.763Z,17.78
2023-01-19T16:30:51.249Z,17.93
2023-01-19T16:31:54.514Z,17.79
2023-01-19T16:32:57.699Z,18.92
2023-01-19T16:34:01.174Z,17.49
2023-01-19T16:35:04.715Z,18.32
2023-01-19T16:36:23.461Z,17.86
2023-01-19T16:37:28.093Z,16.93
2023-01-19T16:38:31.395Z,16.55
2023-01-19T16:39:34.604Z,18.02
2023-01-19T16:40:38.087Z,16.51
2023-01-19T16:41:42.095Z,17.59
2023-01-19T16:42:46.692Z,17.52
2023-01-19T16:43:52.053Z,17.02
2023-01-19T16:44:55.479Z,17.53
2023-01-19T16:46:01.996Z,17.45
2023-01-19T16:47:05.438Z,17.32
2023-01-19T20:03:53.186Z,23.93
2023-01-19T20:04:57.919Z,22.94
2023-01-19T20:06:06.713Z,22.33
2023-01-19T20:07:09.943Z,23.06
2023-01-19T20:08:13.469Z,23.18
2023-01-19T20:09:17.201Z,23.38
2023-01-19T20:10:21.089Z,24.55
2023-01-19T20:11:26.965Z,22.44
2023-01-19T20:12:30.161Z,23.07
2023-01-19T20:13:35.372Z,21.95
2023-01-19T20:14:38.636Z,22.33
2023-01-19T20:15:41.907Z,22.59
2023-01-19T20:16:45.186Z,22.67
2023-01-19T20:17:48.451Z,20.42
2023-01-19T20:18:53.651Z,20.69
2023-01-19T20:19:58.474Z,22.24
2023-01-19T20:21:05.245Z,22.34
2023-01-19T20:22:08.504Z,21.19
2023-01-19T20:23:11.679Z,21.84
2023-01-19T20:24:17.191Z,22.09
2023-01-19T20:25:20.397Z,20.91
2023-01-19T20:26:26.467Z,22.13
2023-01-19T20:27:29.646Z,22.66
2023-01-19T20:28:33.123Z,23.02
2023-01-19T20:29:36.360Z,23.34
2023-01-19T20:30:39.680Z,21.75
2023-01-19T20:31:49.056Z,20.97
2023-01-19T20:32:52.219Z,21.31
2023-01-19T20:33:57.700Z,21.17
2023-01-19T20:35:00.932Z,21.85
2023-01-19T20:36:04.854Z,20.66
2023-01-19T20:37:08.879Z,21.43
2023-01-19T20:38:12.085Z,22.55
2023-01-19T20:39:17.065Z,23.50
2023-01-19T20:40:20.478Z,22.57
2023-01-19T20:41:24.925Z,22.65
2023-01-19T20:42:28.177Z,23.38
2023-01-19T20:43:31.453Z,21.81
2023-01-19T20:44:34.658Z,23.40
2023-01-19T20:45:37.964Z,21.71
2023-01-19T20:46:41.758Z,23.58
2023-01-19T20:47:44.969Z,22.72
2023-01-19T20:48:50.111Z,21.42
2023-01-19T20:49:53.419Z,21.39
2023-01-19T20:51:08.959Z,22.45
2023-01-19T20:52:12.318Z,21.22
2023-01-19T20:53:16.337Z,21.23
2023-01-19T20:54:22.221Z,22.68
2023-01-19T20:55:25.628Z,21.97
2023-01-19T20:56:29.065Z,20.53
2023-01-19T20:57:32.463Z,20.66
2023-01-19T20:58:35.690Z,20.29
2023-01-19T20:59:40.402Z,21.39
2023-01-19T21:00:44.224Z,22.62
2023-01-19T21:01:48.067Z,21.94
2023-01-19T21:02:51.713Z,20.93
2023-01-19T21:03:55.099Z,20.92